KSEE

Gillespie Field Airport

San Diego/El Cajon, California, USA
METAR KSEE 272347Z 23008KT 10SM SKC 22/11 A2991
Observed Flight Rules
May-27 @ 23:47 UTC (an hour ago) Visual Flight Rules
Wind Visibility Clouds
230° at 8 knots 10 miles
  • Clear skies
Temperatures Readings
Current 22°C / 72°F
Dewpoint 11°C / 52°F
Humidity 50%
Altimeter 29.91" Hg
Pressure 1013 hPa
Elevation 117
METAR KSEE 272347Z 23008KT 10SM SKC 22/11 A2991
Observed Flight Rules
May-27 @ 23:47 UTC
(an hour ago)
VFR
Wind Visibility
230° at 8 knots 10 miles
Clouds
  • Clear skies
Temperature Dewpoint
22°C / 72°F 11°C / 52°F
Humidity Altimeter Pressure
50% 29.91" Hg 1013 hPa